Sun Day — WDC8625 — position and weather

sailwx.info

Track history (hours):
 
Tides and Currents Weather Stations Pressure Air Temp Water Temp Dewpoint Dewpoint Depression Visibility Wind Speed Wind Dir Waves Ship Positions

Sun Day

Owner: Y&S Marine, Inc., Belle Chasse, LA. More information available from US FCC via Universal Licensing System and Coast Guard Vessel Documentation Center.

Last reported at 2017-Nov-15 08:30 UTC. Time now 2017-Nov-17 19:45 UTC.
Position N 29°36' W 092°01'.

Length 33 m; draft 2 m.

MMSI: 367090390.

Date/timePositionNaut miles runAvg speedWind from/ knotsBaromVisibWave heightAir tempDewpointWater temp
2017-Nov-15 08:30N 29°36' W 092°01'816.9
2017-Nov-15 08:00N 29°43' W 092°06'510.5
2017-Nov-15 07:30N 29°47' W 092°10'1 1.3
2017-Nov-15 07:00N 29°47' W 092°11'0 0.3
2017-Nov-15 06:30N 29°47' W 092°11'2 4.0
2017-Nov-15 06:00N 29°48' W 092°09'0 0.0
2017-Nov-15 05:30N 29°48' W 092°09'0 0.0
2017-Nov-15 05:00N 29°48' W 092°09'0 0.0
2017-Nov-15 04:30N 29°48' W 092°09'0 0.0
2017-Nov-15 04:00N 29°48' W 092°09'0 0.0
2017-Nov-15 03:30N 29°48' W 092°09'0 0.0
2017-Nov-15 03:00N 29°48' W 092°09'0 0.0
2017-Nov-15 02:30N 29°48' W 092°09'0 0.0
2017-Nov-15 02:00N 29°48' W 092°09'0 0.0
2017-Nov-15 01:30N 29°48' W 092°09'0 0.0
2017-Nov-15 01:00N 29°48' W 092°09'0 0.0
2017-Nov-15 00:30N 29°48' W 092°09'0 0.0
2017-Nov-15 00:00N 29°48' W 092°09'0 0.1
2017-Nov-14 23:30N 29°48' W 092°09'0 0.0
2017-Nov-14 23:00N 29°48' W 092°09'3 5.7
2017-Nov-14 22:31N 29°45' W 092°07'  
2017-Nov-08 20:55N 29°38' W 092°01'512.6
2017-Nov-08 20:31N 29°42' W 092°05'612.4
2017-Nov-08 20:00N 29°48' W 092°09'0 0.0
2017-Nov-08 19:30N 29°48' W 092°09'0 0.0
2017-Nov-08 19:00N 29°48' W 092°09'0 0.0
2017-Nov-08 18:30N 29°48' W 092°09'0 0.4
2017-Nov-08 18:00N 29°47' W 092°09'2 4.1
2017-Nov-08 17:30N 29°47' W 092°11'0 0.0
2017-Nov-08 17:00N 29°47' W 092°11'0 0.8
2017-Nov-08 16:30N 29°47' W 092°10'2 3.8
2017-Nov-08 16:00N 29°47' W 092°09'815.8
2017-Nov-08 15:30N 29°41' W 092°04'3 0.4
2017-Nov-08 09:29N 29°39' W 092°02'1020.4
2017-Nov-08 09:01N 29°47' W 092°08'1 2.1
2017-Nov-08 08:30N 29°48' W 092°09'0 0.0
2017-Nov-08 08:00N 29°48' W 092°09'0 0.0
2017-Nov-08 07:30N 29°48' W 092°09'0 0.0
2017-Nov-08 07:01N 29°48' W 092°09'0 0.0
2017-Nov-08 06:30N 29°48' W 092°09'0 0.0
2017-Nov-08 06:00N 29°48' W 092°09'0 0.0
2017-Nov-08 05:30N 29°48' W 092°09'0 0.0
2017-Nov-08 05:00N 29°48' W 092°09'0 0.0
2017-Nov-08 04:30N 29°48' W 092°09'0 0.0
2017-Nov-08 04:00N 29°48' W 092°09'0 0.0
2017-Nov-08 03:30N 29°48' W 092°09'0 0.0
2017-Nov-08 03:01N 29°48' W 092°09'0 0.0
2017-Nov-08 02:30N 29°48' W 092°09'0 0.1
2017-Nov-08 02:00N 29°48' W 092°09'0 0.7
2017-Nov-08 01:30N 29°47' W 092°09'0 0.5
2017-Nov-08 01:00N 29°47' W 092°09'0 0.2
2017-Nov-08 00:30N 29°48' W 092°09'0 0.0
2017-Nov-08 00:00N 29°48' W 092°09'0 0.0
2017-Nov-07 23:30N 29°48' W 092°09'2 3.4
2017-Nov-07 23:00N 29°46' W 092°08'  
Track history (hours):
 
Tides and Currents Weather Stations Pressure Air Temp Water Temp Dewpoint Dewpoint Depression Visibility Wind Speed Wind Dir Waves Ship Positions

Sun Day

Owner: Y&S Marine, Inc., Belle Chasse, LA. More information available from US FCC via Universal Licensing System and Coast Guard Vessel Documentation Center.

Last reported at 2017-Nov-15 08:30 UTC. Time now 2017-Nov-17 19:45 UTC.
Position N 29°36' W 092°01'.

Length 33 m; draft 2 m.

MMSI: 367090390.

Date/timePositionNaut miles runAvg speedWind from/ knotsBaromVisibWave heightAir tempDewpointWater temp
2017-Nov-15 08:30N 29°36' W 092°01'816.9
2017-Nov-15 08:00N 29°43' W 092°06'510.5
2017-Nov-15 07:30N 29°47' W 092°10'1 1.3
2017-Nov-15 07:00N 29°47' W 092°11'0 0.3
2017-Nov-15 06:30N 29°47' W 092°11'2 4.0
2017-Nov-15 06:00N 29°48' W 092°09'0 0.0
2017-Nov-15 05:30N 29°48' W 092°09'0 0.0
2017-Nov-15 05:00N 29°48' W 092°09'0 0.0
2017-Nov-15 04:30N 29°48' W 092°09'0 0.0
2017-Nov-15 04:00N 29°48' W 092°09'0 0.0
2017-Nov-15 03:30N 29°48' W 092°09'0 0.0
2017-Nov-15 03:00N 29°48' W 092°09'0 0.0
2017-Nov-15 02:30N 29°48' W 092°09'0 0.0
2017-Nov-15 02:00N 29°48' W 092°09'0 0.0
2017-Nov-15 01:30N 29°48' W 092°09'0 0.0
2017-Nov-15 01:00N 29°48' W 092°09'0 0.0
2017-Nov-15 00:30N 29°48' W 092°09'0 0.0
2017-Nov-15 00:00N 29°48' W 092°09'0 0.1
2017-Nov-14 23:30N 29°48' W 092°09'0 0.0
2017-Nov-14 23:00N 29°48' W 092°09'3 5.7
2017-Nov-14 22:31N 29°45' W 092°07'  
2017-Nov-08 20:55N 29°38' W 092°01'512.6
2017-Nov-08 20:31N 29°42' W 092°05'612.4
2017-Nov-08 20:00N 29°48' W 092°09'0 0.0
2017-Nov-08 19:30N 29°48' W 092°09'0 0.0
2017-Nov-08 19:00N 29°48' W 092°09'0 0.0
2017-Nov-08 18:30N 29°48' W 092°09'0 0.4
2017-Nov-08 18:00N 29°47' W 092°09'2 4.1
2017-Nov-08 17:30N 29°47' W 092°11'0 0.0
2017-Nov-08 17:00N 29°47' W 092°11'0 0.8
2017-Nov-08 16:30N 29°47' W 092°10'2 3.8
2017-Nov-08 16:00N 29°47' W 092°09'815.8
2017-Nov-08 15:30N 29°41' W 092°04'3 0.4
2017-Nov-08 09:29N 29°39' W 092°02'1020.4
2017-Nov-08 09:01N 29°47' W 092°08'1 2.1
2017-Nov-08 08:30N 29°48' W 092°09'0 0.0
2017-Nov-08 08:00N 29°48' W 092°09'0 0.0
2017-Nov-08 07:30N 29°48' W 092°09'0 0.0
2017-Nov-08 07:01N 29°48' W 092°09'0 0.0
2017-Nov-08 06:30N 29°48' W 092°09'0 0.0
2017-Nov-08 06:00N 29°48' W 092°09'0 0.0
2017-Nov-08 05:30N 29°48' W 092°09'0 0.0
2017-Nov-08 05:00N 29°48' W 092°09'0 0.0
2017-Nov-08 04:30N 29°48' W 092°09'0 0.0
2017-Nov-08 04:00N 29°48' W 092°09'0 0.0
2017-Nov-08 03:30N 29°48' W 092°09'0 0.0
2017-Nov-08 03:01N 29°48' W 092°09'0 0.0
2017-Nov-08 02:30N 29°48' W 092°09'0 0.1
2017-Nov-08 02:00N 29°48' W 092°09'0 0.7
2017-Nov-08 01:30N 29°47' W 092°09'0 0.5
2017-Nov-08 01:00N 29°47' W 092°09'0 0.2
2017-Nov-08 00:30N 29°48' W 092°09'0 0.0
2017-Nov-08 00:00N 29°48' W 092°09'0 0.0
2017-Nov-07 23:30N 29°48' W 092°09'2 3.4
2017-Nov-07 23:00N 29°46' W 092°08'  

Dump ship's entire track history